Time;durP1;ratioP1;P1;durP2;ratioP2;P2;SDS_P1;SDS_P2;PMS_P1;PMS_P2;Temp;Humidity;BMP_temperature;BMP_pressure;BME280_temperature;BME280_humidity;BME280_pressure;Samples;Min_cycle;Max_cycle;Signal;HPM_P1;HPM_P2
2022/03/09 00:00:23;;;;;;;30.90;28.55;;;0.70;63.50;;;;;;5092493;28;20209;-71
2022/03/09 00:02:50;;;;;;;30.65;28.25;;;0.60;63.70;;;;;;5092630;28;20217;-71
2022/03/09 00:05:17;;;;;;;29.58;27.15;;;0.60;63.80;;;;;;5092559;28;20193;-71
2022/03/09 00:07:43;;;;;;;29.90;27.65;;;0.60;64.00;;;;;;5092817;28;20244;-71
2022/03/09 00:10:12;;;;;;;30.60;28.25;;;0.60;64.10;;;;;;5092622;28;20194;-71
2022/03/09 00:12:39;;;;;;;31.50;28.98;;;0.50;64.50;;;;;;5092617;28;20262;-71
2022/03/09 00:15:06;;;;;;;31.08;28.52;;;0.50;64.60;;;;;;5092723;28;20207;-71
2022/03/09 00:17:33;;;;;;;30.42;28.23;;;0.50;64.70;;;;;;5092870;28;20289;-71
2022/03/09 00:20:00;;;;;;;31.30;28.75;;;0.50;64.70;;;;;;5092293;28;20201;-71
2022/03/09 00:22:27;;;;;;;30.55;28.52;;;0.40;65.00;;;;;;5092428;28;20812;-71
2022/03/09 00:24:54;;;;;;;32.05;29.65;;;0.30;65.20;;;;;;5092424;28;20208;-71
2022/03/09 00:27:22;;;;;;;30.52;28.35;;;0.30;65.40;;;;;;5092390;28;20221;-71
2022/03/09 00:29:49;;;;;;;32.53;29.92;;;0.30;65.40;;;;;;5092048;28;20206;-71
2022/03/09 00:32:16;;;;;;;31.15;28.60;;;0.30;65.40;;;;;;5092674;28;20627;-71
2022/03/09 00:34:43;;;;;;;31.95;29.65;;;0.20;65.30;;;;;;5096644;28;20194;-71
2022/03/09 00:37:10;;;;;;;30.95;28.67;;;0.30;65.00;;;;;;5096389;28;20209;-71
2022/03/09 00:39:37;;;;;;;32.50;29.70;;;0.30;64.80;;;;;;5096058;28;20288;-71
2022/03/09 00:42:04;;;;;;;32.45;29.50;;;0.20;65.20;;;;;;5095948;28;20227;-71
2022/03/09 00:44:32;;;;;;;32.70;30.20;;;0.20;65.40;;;;;;5096197;28;20290;-71
2022/03/09 00:46:59;;;;;;;30.70;28.48;;;0.20;65.80;;;;;;5095863;28;20231;-71
2022/03/09 00:49:26;;;;;;;31.65;29.25;;;0.10;65.90;;;;;;5095791;28;20280;-71
2022/03/09 00:51:53;;;;;;;31.00;28.63;;;0.00;66.10;;;;;;5095980;28;20263;-71
2022/03/09 00:54:20;;;;;;;31.80;29.40;;;0.00;66.20;;;;;;5096005;28;20204;-71
2022/03/09 00:56:47;;;;;;;31.75;29.30;;;0.00;66.20;;;;;;5096046;28;20231;-71
2022/03/09 00:59:14;;;;;;;32.15;29.38;;;0.00;66.20;;;;;;5095470;28;20228;-71
2022/03/09 01:01:42;;;;;;;30.13;27.98;;;-0.10;66.30;;;;;;5095954;28;20745;-71
2022/03/09 01:04:09;;;;;;;32.72;30.00;;;-0.10;66.50;;;;;;5095754;28;20235;-71
2022/03/09 01:06:36;;;;;;;31.02;28.63;;;-0.10;67.20;;;;;;5095757;28;20558;-71
2022/03/09 01:09:03;;;;;;;30.85;28.65;;;-0.20;67.20;;;;;;5095767;28;20249;-71
2022/03/09 01:11:31;;;;;;;30.27;28.08;;;-0.30;67.60;;;;;;5095437;28;20217;-71
2022/03/09 01:13:58;;;;;;;31.63;29.27;;;-0.30;67.90;;;;;;5095491;28;20200;-71
2022/03/09 01:16:25;;;;;;;33.05;30.20;;;-0.30;68.00;;;;;;5095460;28;20666;-71
2022/03/09 01:18:53;;;;;;;30.65;28.30;;;-0.30;68.40;;;;;;5095571;28;20347;-71
2022/03/09 01:21:20;;;;;;;31.52;29.33;;;-0.30;68.30;;;;;;5095396;28;20221;-71
2022/03/09 01:23:47;;;;;;;32.33;29.35;;;-0.30;68.50;;;;;;5095465;28;20290;-71
2022/03/09 01:26:14;;;;;;;31.05;28.75;;;-0.40;68.10;;;;;;5095478;28;20202;-71
2022/03/09 01:28:41;;;;;;;31.30;28.08;;;-0.40;67.90;;;;;;5095315;28;20227;-71
2022/03/09 01:31:08;;;;;;;31.40;29.00;;;-0.30;67.80;;;;;;5095407;28;20198;-71
2022/03/09 01:33:35;;;;;;;31.17;28.77;;;-0.30;68.00;;;;;;5095268;28;20200;-71
2022/03/09 01:36:03;;;;;;;30.60;28.20;;;-0.40;68.40;;;;;;5095247;28;20287;-71
2022/03/09 01:38:30;;;;;;;31.05;28.70;;;-0.40;68.80;;;;;;5095321;28;20536;-71
2022/03/09 01:40:57;;;;;;;30.45;28.15;;;-0.30;68.40;;;;;;5094868;28;20567;-71
2022/03/09 01:43:24;;;;;;;32.28;29.58;;;-0.20;67.80;;;;;;5095179;28;20203;-71
2022/03/09 01:45:50;;;;;;;30.95;28.45;;;-0.20;67.30;;;;;;5095243;28;20203;-71
2022/03/09 01:48:17;;;;;;;30.83;28.58;;;-0.30;67.50;;;;;;5094711;28;20226;-71
2022/03/09 01:50:45;;;;;;;32.33;29.73;;;-0.40;68.10;;;;;;5094777;28;20280;-71
2022/03/09 01:53:14;;;;;;;31.88;29.38;;;-0.40;68.80;;;;;;5094745;28;20303;-71
2022/03/09 01:55:41;;;;;;;30.60;28.10;;;-0.40;68.90;;;;;;5094737;28;20288;-71
2022/03/09 01:58:08;;;;;;;32.05;29.55;;;-0.50;68.70;;;;;;5094759;28;20725;-71
2022/03/09 02:00:35;;;;;;;31.27;29.08;;;-0.50;68.60;;;;;;5094366;28;20208;-71
2022/03/09 02:03:02;;;;;;;30.80;28.50;;;-0.50;68.50;;;;;;5094777;28;20214;-71
2022/03/09 02:05:29;;;;;;;31.50;28.90;;;-0.60;68.60;;;;;;5094569;28;20193;-71
2022/03/09 02:10:42;;;;;;;30.05;27.80;;;-0.60;68.90;;;;;;5094567;28;20560;-71
2022/03/09 02:13:09;;;;;;;31.58;29.23;;;-0.60;69.10;;;;;;5094479;28;20270;-71
2022/03/09 02:15:36;;;;;;;31.70;29.17;;;-0.60;69.20;;;;;;5094489;28;20228;-71
2022/03/09 02:18:03;;;;;;;31.20;28.70;;;-0.50;69.60;;;;;;5094411;28;20206;-72
2022/03/09 02:20:31;;;;;;;31.10;28.55;;;-0.50;69.50;;;;;;5094189;28;20204;-71
2022/03/09 02:23:00;;;;;;;32.45;29.85;;;-0.50;70.40;;;;;;5094188;28;20303;-71
2022/03/09 02:25:27;;;;;;;30.30;28.02;;;-0.50;71.80;;;;;;5094286;28;20553;-71
2022/03/09 02:27:54;;;;;;;30.90;28.55;;;-0.50;71.70;;;;;;5094005;28;20716;-71
2022/03/09 02:30:21;;;;;;;31.05;28.67;;;-0.50;70.50;;;;;;5094002;28;20201;-71
2022/03/09 02:32:49;;;;;;;31.67;28.98;;;-0.60;69.30;;;;;;5094106;28;20247;-71
2022/03/09 02:35:19;;;;;;;30.80;28.48;;;-0.60;69.90;;;;;;5094008;28;20197;-71
2022/03/09 02:37:46;;;;;;;31.38;28.75;;;-0.70;69.90;;;;;;5094066;28;20568;-71
2022/03/09 02:40:16;;;;;;;32.17;29.67;;;-0.60;69.70;;;;;;5093751;28;20244;-71
2022/03/09 02:42:43;;;;;;;32.60;29.80;;;-0.60;69.90;;;;;;5093501;28;20245;-71
2022/03/09 02:45:11;;;;;;;31.83;29.30;;;-0.70;70.10;;;;;;5093759;28;20206;-71
2022/03/09 02:47:40;;;;;;;30.58;28.38;;;-0.70;70.40;;;;;;5093594;28;20227;-71
2022/03/09 02:50:08;;;;;;;30.63;28.42;;;-0.80;70.10;;;;;;5093590;28;20199;-71
2022/03/09 02:52:38;;;;;;;32.08;29.45;;;-0.80;71.30;;;;;;5093601;28;20226;-70
2022/03/09 02:55:06;;;;;;;30.48;28.35;;;-0.80;70.50;;;;;;5093222;28;20204;-70
2022/03/09 02:57:34;;;;;;;30.55;28.25;;;-0.80;70.40;;;;;;5093681;28;20286;-70
2022/03/09 03:00:01;;;;;;;31.08;28.77;;;-0.80;71.10;;;;;;5093309;28;20211;-71
2022/03/09 03:02:28;;;;;;;32.65;29.90;;;-0.80;71.40;;;;;;5093413;28;20302;-71
2022/03/09 03:04:55;;;;;;;31.88;29.33;;;-0.80;71.90;;;;;;5093577;28;20202;-71
2022/03/09 03:07:22;;;;;;;32.05;29.45;;;-0.80;71.20;;;;;;5093626;28;20256;-70
2022/03/09 03:09:48;;;;;;;31.17;28.77;;;-0.90;70.10;;;;;;5093387;28;20283;-71
2022/03/09 03:12:15;;;;;;;31.90;29.70;;;-0.80;70.00;;;;;;5093339;28;20222;-70
2022/03/09 03:14:44;;;;;;;32.35;29.98;;;-0.80;69.80;;;;;;5093385;28;20198;-70
2022/03/09 03:17:10;;;;;;;31.40;29.05;;;-0.80;69.90;;;;;;5093264;28;20693;-71
2022/03/09 03:19:37;;;;;;;31.40;29.05;;;-0.90;70.00;;;;;;5093129;28;20557;-71
2022/03/09 03:22:05;;;;;;;31.33;28.92;;;-0.90;70.30;;;;;;5093343;28;20217;-71
2022/03/09 03:24:32;;;;;;;29.92;27.73;;;-0.90;71.00;;;;;;5093304;28;20197;-71
2022/03/09 03:26:59;;;;;;;32.90;29.88;;;-0.90;71.50;;;;;;5093094;28;20557;-71
2022/03/09 03:29:26;;;;;;;31.63;29.27;;;-0.90;71.20;;;;;;5092759;28;20227;-71
2022/03/09 03:31:54;;;;;;;30.73;28.50;;;-0.90;70.70;;;;;;5093122;28;20631;-71
2022/03/09 03:34:21;;;;;;;31.75;29.38;;;-0.90;70.60;;;;;;5093009;28;20209;-71
2022/03/09 03:36:48;;;;;;;32.20;29.70;;;-0.90;70.70;;;;;;5092931;28;20247;-71
2022/03/09 03:39:15;;;;;;;32.03;29.63;;;-1.00;70.90;;;;;;5092757;28;20196;-71
2022/03/09 03:41:42;;;;;;;31.27;28.92;;;-1.00;71.20;;;;;;5092725;28;20766;-71
2022/03/09 03:44:09;;;;;;;32.25;29.83;;;-1.10;71.40;;;;;;5092823;28;20260;-71
2022/03/09 03:46:36;;;;;;;31.42;29.23;;;-1.10;71.50;;;;;;5092617;28;20200;-71
2022/03/09 03:49:05;;;;;;;34.28;31.50;;;-1.10;71.50;;;;;;5092782;28;20608;-71
2022/03/09 03:51:32;;;;;;;30.63;28.20;;;-1.10;71.80;;;;;;5092706;28;20217;-71
2022/03/09 03:53:59;;;;;;;31.38;28.98;;;-1.00;72.00;;;;;;5092772;28;20670;-71
2022/03/09 03:56:25;;;;;;;34.88;32.28;;;-1.00;71.30;;;;;;5092774;28;20202;-70
2022/03/09 03:58:52;;;;;;;32.83;30.25;;;-1.10;71.40;;;;;;5092791;28;20195;-71
2022/03/09 04:01:19;;;;;;;31.67;29.38;;;-1.10;71.70;;;;;;5092520;28;20292;-71
2022/03/09 04:03:46;;;;;;;32.17;29.73;;;-1.20;72.10;;;;;;5092792;28;20204;-71
2022/03/09 04:06:14;;;;;;;32.50;30.15;;;-1.20;72.20;;;;;;5092595;28;20283;-71
2022/03/09 04:08:41;;;;;;;30.73;28.45;;;-1.20;72.10;;;;;;5095372;28;20216;-71
2022/03/09 04:11:08;;;;;;;34.20;31.52;;;-1.10;71.70;;;;;;5096617;28;20223;-71
2022/03/09 04:13:35;;;;;;;31.58;29.33;;;-1.20;71.40;;;;;;5096847;28;20217;-71
2022/03/09 04:16:02;;;;;;;33.28;30.92;;;-1.20;71.40;;;;;;5096789;28;20199;-71
2022/03/09 04:18:29;;;;;;;33.10;30.60;;;-1.20;71.30;;;;;;5096681;28;20706;-71
2022/03/09 04:20:56;;;;;;;33.35;30.75;;;-1.30;71.60;;;;;;5096503;28;20699;-71
2022/03/09 04:23:24;;;;;;;32.97;30.33;;;-1.40;72.20;;;;;;5096709;28;20196;-71
2022/03/09 04:25:51;;;;;;;32.60;30.20;;;-1.40;72.60;;;;;;5096576;28;20238;-71
2022/03/09 04:28:18;;;;;;;32.10;29.65;;;-1.40;72.70;;;;;;5096647;28;20304;-71
2022/03/09 04:30:45;;;;;;;33.17;30.67;;;-1.40;72.70;;;;;;5096507;28;20654;-71
2022/03/09 04:33:12;;;;;;;32.90;30.40;;;-1.50;72.90;;;;;;5096500;28;20220;-71
2022/03/09 04:35:39;;;;;;;32.88;30.48;;;-1.40;72.80;;;;;;5096503;28;20658;-71
2022/03/09 04:38:06;;;;;;;31.55;29.15;;;-1.40;72.80;;;;;;5096629;28;20192;-70
2022/03/09 04:40:34;;;;;;;30.45;28.23;;;-1.30;72.60;;;;;;5096486;28;20202;-71
2022/03/09 04:43:01;;;;;;;32.35;29.60;;;-1.40;72.90;;;;;;5095952;28;20733;-71
2022/03/09 04:45:28;;;;;;;32.67;30.38;;;-1.40;73.10;;;;;;5096290;28;20203;-70
2022/03/09 04:47:54;;;;;;;31.10;28.60;;;-1.50;73.50;;;;;;5095984;28;20228;-70
2022/03/09 04:50:21;;;;;;;31.25;28.80;;;-1.50;73.50;;;;;;5096075;28;20295;-71
2022/03/09 04:52:48;;;;;;;32.63;30.15;;;-1.50;73.50;;;;;;5096006;28;20782;-70
2022/03/09 04:55:15;;;;;;;31.45;28.73;;;-1.40;73.10;;;;;;5096335;28;20201;-70
2022/03/09 04:57:43;;;;;;;34.22;31.27;;;-1.50;73.30;;;;;;5097328;28;20201;-71
2022/03/09 05:00:11;;;;;;;31.55;29.17;;;-1.50;73.30;;;;;;5097161;28;20737;-71
2022/03/09 05:02:38;;;;;;;30.55;28.65;;;-1.50;73.40;;;;;;5095860;28;20304;-71
2022/03/09 05:05:06;;;;;;;31.80;29.70;;;-1.50;73.20;;;;;;5095697;28;20283;-71
2022/03/09 05:07:33;;;;;;;32.70;30.27;;;-1.50;73.40;;;;;;5095856;28;20283;-71
2022/03/09 05:10:00;;;;;;;33.17;30.83;;;-1.50;73.20;;;;;;5095391;28;20688;-71
2022/03/09 05:12:27;;;;;;;33.55;31.35;;;-1.50;73.30;;;;;;5095600;28;20217;-71
2022/03/09 05:14:55;;;;;;;32.28;29.92;;;-1.40;73.10;;;;;;5095484;28;20201;-72
2022/03/09 05:17:22;;;;;;;33.85;31.52;;;-1.50;73.30;;;;;;5095601;28;20284;-71
2022/03/09 05:19:49;;;;;;;33.63;31.05;;;-1.60;73.80;;;;;;5094825;28;20198;-71
2022/03/09 05:22:16;;;;;;;30.42;28.13;;;-1.70;74.30;;;;;;5095544;28;20720;-71
2022/03/09 05:24:43;;;;;;;30.13;28.02;;;-1.60;74.20;;;;;;5095498;28;20280;-71
2022/03/09 05:27:10;;;;;;;31.83;29.65;;;-1.60;73.70;;;;;;5095383;28;20617;-71
2022/03/09 05:29:37;;;;;;;34.75;31.50;;;-1.60;73.60;;;;;;5095166;28;20248;-71
2022/03/09 05:32:07;;;;;;;35.88;33.15;;;-1.60;76.90;;;;;;5095197;28;20735;-71
2022/03/09 05:34:34;;;;;;;33.22;30.63;;;-1.60;85.60;;;;;;5095450;28;20283;-70
2022/03/09 05:37:01;;;;;;;33.33;30.55;;;-1.60;83.50;;;;;;5095432;28;20204;-71
2022/03/09 05:39:28;;;;;;;32.33;30.00;;;-1.60;80.60;;;;;;5095073;28;20227;-71
2022/03/09 05:41:55;;;;;;;30.25;28.13;;;-1.60;77.20;;;;;;5094935;28;20298;-71
2022/03/09 05:44:22;;;;;;;34.22;31.75;;;-1.60;75.90;;;;;;5095121;28;20223;-70
2022/03/09 05:46:50;;;;;;;31.67;29.40;;;-1.60;74.50;;;;;;5094875;28;20287;-70
2022/03/09 05:49:18;;;;;;;31.75;29.38;;;-1.60;74.40;;;;;;5094767;28;20227;-71
2022/03/09 05:51:45;;;;;;;32.63;30.20;;;-1.50;74.40;;;;;;5094970;28;20221;-70
2022/03/09 05:54:12;;;;;;;33.38;30.67;;;-1.50;74.40;;;;;;5095006;28;20283;-71
2022/03/09 05:56:39;;;;;;;32.95;30.55;;;-1.50;74.60;;;;;;5094898;28;20201;-71
2022/03/09 05:59:05;;;;;;;33.00;30.70;;;-1.60;75.40;;;;;;5094726;28;20224;-70
2022/03/09 06:01:32;;;;;;;31.30;29.10;;;-1.60;75.20;;;;;;5094736;28;20303;-71
2022/03/09 06:04:01;;;;;;;32.55;29.52;;;-1.60;75.00;;;;;;5094915;28;20675;-71
2022/03/09 06:06:29;;;;;;;32.75;30.15;;;-1.70;75.00;;;;;;5094879;28;20231;-71
2022/03/09 06:08:56;;;;;;;33.60;30.88;;;-1.60;75.40;;;;;;5094567;28;20222;-71
2022/03/09 06:11:24;;;;;;;32.22;29.60;;;-1.60;79.40;;;;;;5094383;28;20251;-71
2022/03/09 06:13:52;;;;;;;32.05;29.35;;;-1.50;77.20;;;;;;5094469;28;20203;-71
2022/03/09 06:16:19;;;;;;;33.45;30.85;;;-1.50;75.70;;;;;;5094366;28;20193;-70
2022/03/09 06:18:46;;;;;;;33.90;31.05;;;-1.40;75.30;;;;;;5094432;28;20193;-71
2022/03/09 06:21:13;;;;;;;31.63;29.13;;;-1.40;74.70;;;;;;5094036;28;20562;-71
2022/03/09 06:23:41;;;;;;;32.03;29.23;;;-1.40;74.30;;;;;;5094419;28;20191;-71
2022/03/09 06:26:08;;;;;;;32.88;30.17;;;-1.30;73.80;;;;;;5094036;28;20228;-71
2022/03/09 06:28:35;;;;;;;32.08;29.67;;;-1.30;73.70;;;;;;5093984;28;20222;-71
2022/03/09 06:31:02;;;;;;;32.72;30.33;;;-1.30;73.50;;;;;;5093051;28;20239;-71
2022/03/09 06:33:29;;;;;;;31.70;29.35;;;-1.30;73.30;;;;;;5094156;28;20201;-71
2022/03/09 06:35:56;;;;;;;33.10;30.52;;;-1.40;73.40;;;;;;5094133;28;20228;-71
2022/03/09 06:38:23;;;;;;;32.47;30.15;;;-1.30;73.70;;;;;;5093964;28;20565;-71
2022/03/09 06:40:51;;;;;;;33.28;30.13;;;-1.30;73.60;;;;;;5093768;28;20231;-71
2022/03/09 06:43:18;;;;;;;37.70;31.25;;;-1.20;73.50;;;;;;5093667;28;20216;-71
2022/03/09 06:45:45;;;;;;;32.10;29.15;;;-1.00;72.80;;;;;;5093936;28;20607;-71
2022/03/09 06:48:12;;;;;;;31.77;29.17;;;-1.00;72.80;;;;;;5093507;28;20200;-71
2022/03/09 06:50:39;;;;;;;34.90;32.00;;;-1.00;73.00;;;;;;5093631;28;20197;-71
2022/03/09 06:53:06;;;;;;;34.97;31.42;;;-0.90;73.60;;;;;;5093632;28;20219;-71
2022/03/09 06:55:33;;;;;;;39.13;35.95;;;-0.90;72.90;;;;;;5093661;28;20201;-71
2022/03/09 06:58:01;;;;;;;33.03;29.67;;;-0.80;73.20;;;;;;5093655;28;20194;-71
2022/03/09 07:00:28;;;;;;;34.40;31.90;;;-0.70;72.80;;;;;;5093429;28;20292;-71
2022/03/09 07:02:56;;;;;;;33.45;30.63;;;-0.60;72.00;;;;;;5093522;28;20224;-71
2022/03/09 07:05:24;;;;;;;33.33;30.73;;;-0.50;71.60;;;;;;5093472;28;20212;-71
2022/03/09 07:07:51;;;;;;;32.75;30.15;;;-0.30;70.80;;;;;;5093399;28;20287;-72
2022/03/09 07:10:18;;;;;;;32.85;30.35;;;-0.30;70.20;;;;;;5093181;28;20228;-72
2022/03/09 07:12:46;;;;;;;34.13;31.38;;;-0.20;69.80;;;;;;5093270;28;20727;-71
2022/03/09 07:15:15;;;;;;;32.50;29.73;;;-0.10;69.70;;;;;;5093284;28;20198;-72
2022/03/09 07:17:42;;;;;;;33.90;31.30;;;0.10;69.20;;;;;;5093356;28;20287;-72
2022/03/09 07:20:11;;;;;;;33.17;30.17;;;0.20;69.10;;;;;;5093019;28;20189;-72
2022/03/09 07:22:38;;;;;;;33.85;30.90;;;0.30;69.20;;;;;;5093221;28;20249;-72
2022/03/09 07:25:06;;;;;;;34.03;31.00;;;0.40;69.00;;;;;;5093364;28;20197;-71
2022/03/09 07:27:33;;;;;;;32.08;29.67;;;0.50;69.00;;;;;;5093220;28;20238;-72
2022/03/09 07:30:00;;;;;;;34.20;31.60;;;0.60;68.40;;;;;;5092904;28;20218;-72
2022/03/09 07:32:28;;;;;;;33.38;30.73;;;0.80;68.10;;;;;;5093137;28;20257;-72
2022/03/09 07:34:55;;;;;;;34.80;31.70;;;0.90;67.40;;;;;;5092942;28;20208;-72
2022/03/09 07:37:22;;;;;;;33.38;30.30;;;1.00;67.00;;;;;;5092937;28;20729;-71
2022/03/09 07:39:49;;;;;;;33.45;31.13;;;1.10;66.10;;;;;;5092612;28;20285;-72
2022/03/09 07:42:16;;;;;;;35.78;32.63;;;1.20;65.90;;;;;;5092327;28;20630;-72
2022/03/09 07:44:43;;;;;;;33.92;31.58;;;1.30;65.80;;;;;;5092812;28;20553;-72
2022/03/09 07:47:10;;;;;;;34.72;32.13;;;1.40;65.10;;;;;;5092676;28;20232;-72
2022/03/09 07:49:38;;;;;;;32.78;30.35;;;1.50;64.80;;;;;;5092452;28;20218;-72
2022/03/09 07:52:07;;;;;;;33.97;31.02;;;1.60;64.90;;;;;;5092672;28;20592;-72
2022/03/09 07:54:34;;;;;;;32.80;30.40;;;1.80;64.80;;;;;;5092733;28;20232;-72
2022/03/09 07:57:02;;;;;;;32.08;29.48;;;1.90;64.40;;;;;;5092760;28;20204;-72
2022/03/09 07:59:29;;;;;;;33.70;30.90;;;2.00;64.20;;;;;;5092425;28;20237;-72
2022/03/09 08:01:56;;;;;;;36.50;33.28;;;2.10;63.90;;;;;;5092489;28;20249;-72
2022/03/09 08:04:24;;;;;;;35.33;32.50;;;2.20;63.60;;;;;;5092679;28;20205;-72
2022/03/09 08:06:54;;;;;;;33.33;30.88;;;2.30;63.30;;;;;;5092712;28;20224;-72
2022/03/09 08:09:21;;;;;;;34.88;32.00;;;2.40;62.80;;;;;;5092540;28;20224;-72
2022/03/09 08:11:48;;;;;;;33.20;30.70;;;2.50;62.40;;;;;;5092611;28;20270;-72
2022/03/09 08:14:16;;;;;;;32.83;30.23;;;2.60;62.00;;;;;;5092482;28;20193;-72
2022/03/09 08:16:43;;;;;;;35.63;32.05;;;2.70;61.60;;;;;;5092424;28;20198;-72
2022/03/09 08:19:10;;;;;;;36.05;33.10;;;2.80;61.10;;;;;;5092320;28;20188;-72
2022/03/09 08:21:37;;;;;;;34.25;31.75;;;2.90;60.80;;;;;;5092629;28;20217;-72
2022/03/09 08:24:07;;;;;;;36.65;33.65;;;3.00;60.60;;;;;;5092594;28;20230;-72
2022/03/09 08:26:34;;;;;;;36.25;33.55;;;3.10;60.20;;;;;;5092530;28;20192;-72
2022/03/09 08:29:01;;;;;;;34.35;31.70;;;3.20;60.00;;;;;;5092176;28;20684;-72
2022/03/09 08:31:28;;;;;;;36.83;33.03;;;3.40;59.70;;;;;;5092220;28;20263;-72
2022/03/09 08:33:55;;;;;;;36.97;33.92;;;3.40;59.40;;;;;;5092543;28;20197;-72
2022/03/09 08:36:22;;;;;;;32.45;30.05;;;3.50;59.00;;;;;;5092433;28;20556;-72
2022/03/09 08:38:49;;;;;;;34.22;31.33;;;3.60;58.70;;;;;;5092301;28;20196;-72
2022/03/09 08:41:17;;;;;;;33.55;31.15;;;3.70;57.90;;;;;;5091861;28;20254;-72
2022/03/09 08:43:44;;;;;;;32.20;29.92;;;3.80;57.20;;;;;;5092458;28;20198;-72
2022/03/09 08:46:12;;;;;;;32.65;30.08;;;4.00;56.80;;;;;;5092234;28;20197;-72
2022/03/09 08:48:39;;;;;;;32.92;30.63;;;4.20;56.10;;;;;;5092230;28;20247;-72
2022/03/09 08:51:07;;;;;;;32.13;29.73;;;4.20;55.80;;;;;;5092258;28;20239;-72
2022/03/09 08:53:35;;;;;;;32.90;30.17;;;4.40;55.50;;;;;;5093170;28;20201;-72
2022/03/09 08:56:02;;;;;;;33.67;31.13;;;4.50;55.30;;;;;;5096211;28;20559;-72
2022/03/09 08:58:30;;;;;;;32.25;29.85;;;4.60;55.10;;;;;;5096006;28;20232;-72
2022/03/09 09:00:57;;;;;;;33.30;30.55;;;4.70;54.90;;;;;;5095680;28;20684;-72
2022/03/09 09:03:24;;;;;;;32.70;30.35;;;4.80;54.60;;;;;;5095985;28;20204;-72
2022/03/09 09:05:52;;;;;;;33.22;30.73;;;4.90;54.30;;;;;;5095746;28;20196;-72
2022/03/09 09:08:19;;;;;;;31.02;28.73;;;5.00;54.10;;;;;;5095703;28;20563;-72
2022/03/09 09:10:45;;;;;;;34.90;32.50;;;5.00;53.90;;;;;;5095493;28;20360;-72
2022/03/09 09:13:12;;;;;;;31.48;28.90;;;5.20;53.80;;;;;;5095588;28;20772;-72
2022/03/09 09:15:41;;;;;;;31.83;29.50;;;5.30;52.90;;;;;;5095711;28;20282;-72
2022/03/09 09:18:08;;;;;;;33.05;30.58;;;5.40;52.80;;;;;;5095567;28;20611;-72
2022/03/09 09:20:36;;;;;;;34.35;31.05;;;5.50;52.70;;;;;;5095383;28;20191;-72
2022/03/09 09:23:04;;;;;;;32.40;30.00;;;5.60;52.60;;;;;;5095476;28;20465;-72
2022/03/09 09:25:32;;;;;;;33.55;30.95;;;5.70;52.40;;;;;;5095360;28;20677;-72
2022/03/09 09:27:59;;;;;;;31.83;29.35;;;5.80;52.00;;;;;;5095446;28;20205;-72
2022/03/09 09:30:27;;;;;;;33.33;30.85;;;5.90;51.70;;;;;;5095172;28;20264;-72
2022/03/09 09:32:55;;;;;;;34.03;31.30;;;6.00;52.00;;;;;;5095383;28;20275;-72
2022/03/09 09:35:23;;;;;;;33.85;30.95;;;6.00;51.70;;;;;;5095227;28;20233;-72
2022/03/09 09:37:51;;;;;;;34.10;31.05;;;6.20;51.80;;;;;;5095065;28;20198;-72
2022/03/09 09:40:18;;;;;;;32.72;29.60;;;6.20;51.60;;;;;;5094891;28;20231;-72
2022/03/09 09:42:45;;;;;;;32.47;29.98;;;6.40;51.10;;;;;;5094784;28;20220;-72
2022/03/09 09:45:12;;;;;;;33.53;31.00;;;6.50;50.90;;;;;;5095127;28;20201;-72
2022/03/09 09:47:39;;;;;;;33.47;30.98;;;6.70;50.00;;;;;;5094969;28;20201;-72
2022/03/09 09:50:09;;;;;;;34.08;31.48;;;6.80;49.60;;;;;;5094687;28;20221;-72
2022/03/09 09:52:37;;;;;;;33.28;30.55;;;6.90;49.50;;;;;;5094819;28;20214;-72
2022/03/09 09:55:07;;;;;;;33.35;30.92;;;7.00;48.70;;;;;;5094840;28;20202;-72
2022/03/09 09:57:35;;;;;;;33.83;31.33;;;7.10;48.00;;;;;;5094889;28;20196;-72
2022/03/09 10:00:04;;;;;;;32.95;30.55;;;7.10;47.60;;;;;;5094511;28;20206;-73
2022/03/09 10:02:31;;;;;;;34.47;31.67;;;7.20;47.80;;;;;;5094708;28;20772;-72
2022/03/09 10:04:58;;;;;;;34.50;31.60;;;7.30;47.50;;;;;;5094520;28;20593;-72
2022/03/09 10:07:26;;;;;;;34.38;31.88;;;7.40;47.40;;;;;;5094625;28;20194;-72
2022/03/09 10:09:54;;;;;;;34.85;31.95;;;7.50;46.50;;;;;;5094344;28;20218;-72
2022/03/09 10:12:28;;;;;;;34.97;31.73;;;7.70;46.60;;;;;;5094477;28;20704;-73
2022/03/09 10:14:55;;;;;;;38.97;35.78;;;7.80;45.50;;;;;;5094607;28;20206;-72
2022/03/09 10:17:24;;;;;;;37.22;34.55;;;7.80;45.70;;;;;;5094320;28;20198;-72
2022/03/09 10:19:54;;;;;;;33.75;31.25;;;8.00;45.60;;;;;;5094180;28;20197;-72
2022/03/09 10:22:28;;;;;;;34.22;31.60;;;8.00;44.70;;;;;;5094350;28;20219;-72
2022/03/09 10:24:56;;;;;;;33.92;31.63;;;8.10;44.60;;;;;;5094396;28;20242;-72
2022/03/09 10:27:35;;;;;;;33.40;30.83;;;8.20;44.40;;;;;;5094205;28;20632;-73
2022/03/09 10:30:02;;;;;;;35.40;32.50;;;8.20;43.90;;;;;;5093950;28;20308;-73
2022/03/09 10:32:50;;;;;;;37.10;34.20;;;8.30;43.90;;;;;;5093997;28;20585;-72
2022/03/09 10:35:19;;;;;;;36.08;32.95;;;8.30;45.00;;;;;;5094209;28;20201;-72
2022/03/09 10:37:49;;;;;;;35.58;33.00;;;8.30;45.60;;;;;;5093956;28;20561;-72
2022/03/09 10:40:18;;;;;;;34.78;31.98;;;8.50;45.40;;;;;;5093669;28;20774;-72
2022/03/09 10:42:45;;;;;;;35.22;32.53;;;8.60;44.80;;;;;;5093661;28;20376;-72
2022/03/09 10:45:13;;;;;;;34.35;31.65;;;8.60;44.80;;;;;;5093984;28;20211;-72
2022/03/09 10:47:41;;;;;;;35.90;33.28;;;8.60;45.50;;;;;;5093713;28;20208;-72
2022/03/09 10:50:14;;;;;;;34.95;32.22;;;8.80;45.40;;;;;;5093574;28;20308;-73
2022/03/09 10:52:49;;;;;;;37.10;34.25;;;8.80;45.10;;;;;;5093815;28;20279;-73
2022/03/09 10:55:37;;;;;;;36.67;33.60;;;8.70;45.70;;;;;;5093836;28;20682;-72
2022/03/09 10:58:10;;;;;;;35.90;33.05;;;8.80;45.70;;;;;;5087554;28;20632;-72
2022/03/09 11:00:39;;;;;;;36.70;33.63;;;8.80;45.50;;;;;;5093439;28;20231;-72
2022/03/09 11:03:08;;;;;;;38.40;35.33;;;8.80;45.50;;;;;;5093577;28;20221;-73
2022/03/09 11:05:35;;;;;;;36.22;33.53;;;9.00;45.10;;;;;;5093542;28;20276;-73
2022/03/09 11:08:05;;;;;;;37.45;34.40;;;9.00;45.30;;;;;;5093533;28;20751;-72
2022/03/09 11:10:32;;;;;;;37.85;34.90;;;9.10;44.90;;;;;;5093217;28;20234;-72
2022/03/09 11:12:59;;;;;;;36.30;33.28;;;9.10;44.70;;;;;;5093294;28;20218;-72
2022/03/09 11:15:27;;;;;;;38.88;35.20;;;9.30;44.20;;;;;;5093392;28;20569;-72
2022/03/09 11:17:55;;;;;;;37.58;34.60;;;9.30;43.60;;;;;;5092836;28;20202;-72
2022/03/09 11:20:22;;;;;;;39.83;36.90;;;9.40;43.50;;;;;;5093117;28;20193;-71
2022/03/09 11:22:51;;;;;;;38.88;35.40;;;9.50;43.20;;;;;;5093368;28;20222;-71
2022/03/09 11:25:24;;;;;;;38.00;34.33;;;9.40;43.40;;;;;;5093274;28;20202;-71
2022/03/09 11:27:53;;;;;;;36.85;34.10;;;9.60;42.60;;;;;;5093150;28;20205;-71
2022/03/09 11:30:25;;;;;;;39.22;35.75;;;9.60;42.70;;;;;;5093028;28;20692;-71
2022/03/09 11:32:54;;;;;;;38.17;35.17;;;9.70;42.40;;;;;;5093078;28;20213;-72
2022/03/09 11:35:39;;;;;;;39.58;36.47;;;9.80;41.70;;;;;;5093100;28;20280;-71
2022/03/09 11:38:40;;;;;;;37.88;34.83;;;9.80;40.90;;;;;;5092311;28;20195;-71
2022/03/09 11:41:25;;;;;;;39.58;36.08;;;9.90;40.40;;;;;;5092731;28;20303;-71
2022/03/09 11:43:53;;;;;;;39.08;35.80;;;9.90;39.90;;;;;;5092979;28;20667;-72
2022/03/09 11:46:21;;;;;;;39.35;35.95;;;9.90;39.90;;;;;;5092972;28;20203;-71
2022/03/09 11:48:54;;;;;;;40.08;36.53;;;9.90;40.30;;;;;;5092859;28;20195;-72
2022/03/09 11:51:22;;;;;;;39.85;36.10;;;10.00;39.90;;;;;;5092392;28;20311;-72
2022/03/09 11:53:52;;;;;;;39.20;36.10;;;10.10;39.20;;;;;;5093043;28;20198;-71
2022/03/09 11:56:25;;;;;;;38.43;35.13;;;10.10;38.80;;;;;;5092981;28;20192;-71
2022/03/09 11:59:13;;;;;;;37.83;34.90;;;10.00;39.00;;;;;;5092785;28;20488;-72
2022/03/09 12:02:28;;;;;;;37.83;34.70;;;10.20;38.90;;;;;;5092798;28;20557;-72
2022/03/09 12:05:00;;;;;;;39.20;36.20;;;10.50;38.50;;;;;;5092649;28;20540;-72
2022/03/09 12:07:48;;;;;;;37.47;34.47;;;10.60;37.70;;;;;;5092731;28;20203;-72
2022/03/09 12:10:17;;;;;;;40.10;36.63;;;10.70;37.10;;;;;;5086141;28;20472;-72
2022/03/09 12:13:18;;;;;;;38.80;35.00;;;10.80;36.70;;;;;;5092720;28;20560;-71
2022/03/09 12:16:04;;;;;;;39.80;36.53;;;10.80;36.90;;;;;;5092579;28;20544;-71
2022/03/09 12:18:35;;;;;;;36.07;33.07;;;10.90;36.90;;;;;;5092448;28;20459;-72
2022/03/09 12:21:03;;;;;;;36.13;33.23;;;10.80;36.30;;;;;;5092368;28;20450;-71
2022/03/09 12:23:29;;;;;;;36.60;33.47;;;10.60;36.00;;;;;;5092605;28;21014;-71
2022/03/09 12:25:58;;;;;;;38.40;35.03;;;10.60;36.10;;;;;;5092506;28;20531;-72
2022/03/09 12:28:47;;;;;;;35.67;32.78;;;10.60;35.60;;;;;;5093021;28;20536;-71
2022/03/09 12:31:23;;;;;;;37.77;34.77;;;10.70;35.00;;;;;;5096187;28;20230;-71
2022/03/09 12:33:53;;;;;;;35.27;32.67;;;10.80;35.30;;;;;;5096640;28;20449;-71
2022/03/09 12:36:22;;;;;;;38.87;35.87;;;10.70;35.20;;;;;;5096716;28;20865;-71
2022/03/09 12:38:52;;;;;;;36.70;33.90;;;10.80;35.00;;;;;;5096428;28;20478;-71